Time;durP1;ratioP1;P1;durP2;ratioP2;P2;SDS_P1;SDS_P2;PMS_P1;PMS_P2;Temp;Humidity;BMP_temperature;BMP_pressure;BME280_temperature;BME280_humidity;BME280_pressure;Samples;Min_cycle;Max_cycle;Signal;HPM_P1;HPM_P2
2021/06/11 00:00:25;;;;;;;6.30;5.68;;;;;;;20.55;61.11;99248.88;5072305;28;20021;-75
2021/06/11 00:02:51;;;;;;;7.03;6.32;;;;;;;20.14;60.92;99191.22;5073050;28;20495;-75
2021/06/11 00:05:16;;;;;;;5.95;5.45;;;;;;;20.59;60.85;99272.25;5072936;28;20021;-74
2021/06/11 00:07:42;;;;;;;6.78;5.88;;;;;;;20.76;60.80;99290.16;5072884;28;20020;-76
2021/06/11 00:10:11;;;;;;;6.78;5.72;;;;;;;18.84;60.99;98987.19;5072635;28;20027;-76
2021/06/11 00:12:38;;;;;;;6.10;5.60;;;;;;;21.00;60.94;99315.69;5073036;28;20519;-75
2021/06/11 00:15:05;;;;;;;6.57;5.97;;;;;;;20.53;60.34;99237.59;5072725;28;20086;-74
2021/06/11 00:17:30;;;;;;;6.53;5.65;;;;;;;21.02;60.40;99312.75;5072667;28;20103;-75
2021/06/11 00:19:56;;;;;;;7.18;6.05;;;;;;;21.02;60.52;99307.41;5072440;28;20124;-75
2021/06/11 00:22:21;;;;;;;6.28;5.70;;;;;;;20.92;60.50;99316.16;5072662;28;20009;-74
2021/06/11 00:24:47;;;;;;;6.15;5.55;;;;;;;20.82;60.46;99284.63;5072686;28;20099;-75
2021/06/11 00:27:12;;;;;;;6.05;5.53;;;;;;;20.98;60.54;99306.28;5075174;28;20024;-74
2021/06/11 00:29:38;;;;;;;6.15;5.55;;;;;;;20.30;60.54;99206.44;5075186;28;20025;-75
2021/06/11 00:32:03;;;;;;;6.00;5.40;;;;;;;20.65;60.22;99256.22;5072902;28;20056;-75
2021/06/11 00:34:29;;;;;;;6.20;5.63;;;;;;;20.75;60.20;99267.88;5072315;28;20108;-75
2021/06/11 00:36:54;;;;;;;6.70;5.68;;;;;;;21.02;60.41;99313.56;5072285;28;20024;-75
2021/06/11 00:39:20;;;;;;;6.97;5.93;;;;;;;20.51;60.18;99251.25;5072172;28;20016;-75
2021/06/11 00:41:45;;;;;;;6.22;5.60;;;;;;;20.38;60.51;99259.63;5072310;28;20416;-75
2021/06/11 00:44:11;;;;;;;5.80;5.32;;;;;;;20.59;60.39;99271.47;5072350;28;20024;-75
2021/06/11 00:46:36;;;;;;;5.97;5.47;;;;;;;20.65;60.27;99280.38;5072263;28;20024;-74
2021/06/11 00:49:02;;;;;;;5.35;4.90;;;;;;;20.48;60.24;99256.31;5072036;28;20213;-75
2021/06/11 00:51:27;;;;;;;7.82;6.43;;;;;;;20.48;60.38;99269.72;5071950;28;20025;-75
2021/06/11 00:53:53;;;;;;;7.13;6.28;;;;;;;20.33;60.70;99248.03;5072084;28;20032;-75
2021/06/11 00:56:21;;;;;;;5.93;5.43;;;;;;;20.56;60.61;99286.19;5072280;28;20031;-74
2021/06/11 00:58:46;;;;;;;6.25;5.65;;;;;;;20.39;60.54;99263.13;5072028;28;20032;-76
2021/06/11 01:01:12;;;;;;;7.43;5.78;;;;;;;20.20;60.72;99244.66;5071735;28;20012;-75
2021/06/11 01:03:37;;;;;;;5.75;5.00;;;;;;;20.37;60.66;99281.34;5071861;28;20111;-75
2021/06/11 01:06:03;;;;;;;6.15;5.55;;;;;;;20.42;60.44;99292.16;5072071;28;20056;-75
2021/06/11 01:08:28;;;;;;;5.53;4.95;;;;;;;20.40;60.49;99272.81;5071852;28;20044;-75
2021/06/11 01:10:56;;;;;;;8.18;5.15;;;;;;;20.67;60.55;99310.44;5071951;28;20158;-75
2021/06/11 01:13:22;;;;;;;6.05;5.50;;;;;;;20.37;60.59;99274.09;5070160;28;20024;-75
2021/06/11 01:15:49;;;;;;;6.03;5.53;;;;;;;20.24;60.55;99248.47;5071704;28;20466;-74
2021/06/11 01:18:16;;;;;;;7.50;5.22;;;;;;;20.50;60.78;99295.22;5071706;28;20523;-76
2021/06/11 01:20:42;;;;;;;6.78;6.03;;;;;;;20.51;60.69;99296.03;5071783;28;20020;-75
2021/06/11 01:23:26;;;;;;;7.05;5.82;;;;;;;20.38;60.89;99291.81;5071812;28;20028;-75
2021/06/11 01:25:57;;;;;;;5.75;5.15;;;;;;;20.37;61.14;99300.09;5071464;28;20074;-75
2021/06/11 01:28:26;;;;;;;7.80;5.70;;;;;;;19.56;60.90;99157.72;5071711;28;20028;-75
2021/06/11 01:30:55;;;;;;;5.65;5.15;;;;;;;20.37;60.69;99281.34;5071442;28;20028;-76
2021/06/11 01:33:23;;;;;;;7.22;5.60;;;;;;;20.07;60.77;99230.81;5071694;28;20081;-75
2021/06/11 01:36:00;;;;;;;5.90;5.32;;;;;;;20.14;60.80;99251.00;5070293;28;20024;-75
2021/06/11 01:38:35;;;;;;;4.80;4.35;;;;;;;20.24;60.63;99277.94;5071764;28;20090;-75
2021/06/11 01:41:03;;;;;;;6.15;5.10;;;;;;;20.41;60.55;99302.06;5070052;28;20068;-75
2021/06/11 01:43:30;;;;;;;7.85;4.93;;;;;;;19.97;60.47;99242.16;5070034;28;20028;-75
2021/06/11 01:45:55;;;;;;;7.90;4.55;;;;;;;20.29;60.33;99274.53;5071506;28;20024;-75
2021/06/11 01:48:23;;;;;;;5.18;4.72;;;;;;;20.11;59.94;99256.84;5071607;28;20025;-75
2021/06/11 01:50:50;;;;;;;7.15;4.80;;;;;;;19.91;60.19;99216.34;5071084;28;20081;-75
2021/06/11 01:53:19;;;;;;;7.47;5.13;;;;;;;20.02;59.91;99236.06;5070444;28;20017;-75
2021/06/11 01:55:46;;;;;;;8.02;5.38;;;;;;;20.07;60.05;99263.78;5070163;28;20078;-74
2021/06/11 01:58:14;;;;;;;6.13;4.88;;;;;;;19.81;60.56;99251.84;5071449;28;20027;-74
2021/06/11 02:00:40;;;;;;;5.75;5.15;;;;;;;19.51;60.70;99211.97;5071452;28;20020;-75
2021/06/11 02:03:07;;;;;;;7.47;5.05;;;;;;;19.79;60.69;99261.19;5071389;28;20039;-74
2021/06/11 02:05:33;;;;;;;7.13;4.47;;;;;;;20.05;60.93;99298.03;5071868;28;20393;-75
2021/06/11 02:08:00;;;;;;;8.75;5.05;;;;;;;19.47;60.82;99186.75;5070064;28;20013;-76
2021/06/11 02:10:25;;;;;;;6.97;4.38;;;;;;;20.25;60.60;99298.34;5070960;28;20024;-75
2021/06/11 02:12:53;;;;;;;7.82;4.57;;;;;;;20.13;60.30;99278.06;5071367;28;20507;-76
2021/06/11 02:15:19;;;;;;;6.80;4.55;;;;;;;20.20;60.48;99294.78;5071321;28;20025;-75
2021/06/11 02:17:47;;;;;;;7.40;4.80;;;;;;;20.18;60.45;99305.75;5070013;28;20024;-75
2021/06/11 02:20:16;;;;;;;7.55;4.50;;;;;;;19.80;60.48;99242.19;5069588;28;20108;-74
2021/06/11 02:22:43;;;;;;;6.13;4.53;;;;;;;20.27;60.31;99290.06;5070863;28;20498;-76
2021/06/11 02:25:12;;;;;;;7.57;4.32;;;;;;;19.96;60.07;99233.31;5070259;28;20032;-75
2021/06/11 02:27:38;;;;;;;5.93;4.60;;;;;;;20.32;60.10;99287.44;5074800;28;20024;-76
2021/06/11 02:30:17;;;;;;;7.60;4.63;;;;;;;20.36;59.93;99280.53;5074785;28;20445;-76
2021/06/11 02:32:42;;;;;;;8.93;4.70;;;;;;;20.25;59.92;99270.72;5073559;28;20507;-75
2021/06/11 02:35:11;;;;;;;8.25;4.28;;;;;;;19.48;59.84;99144.72;5074886;28;20063;-75
2021/06/11 02:37:36;;;;;;;6.28;4.60;;;;;;;20.03;59.74;99233.13;5073398;28;20115;-76
2021/06/11 02:40:04;;;;;;;5.20;4.30;;;;;;;19.93;59.87;99249.06;5074578;28;20124;-76
2021/06/11 02:42:30;;;;;;;6.25;4.72;;;;;;;20.17;60.07;99274.63;5074637;28;20386;-75
2021/06/11 02:45:01;;;;;;;6.00;4.47;;;;;;;19.77;59.83;99215.06;5073396;28;20021;-76
2021/06/11 02:48:17;;;;;;;8.07;4.78;;;;;;;20.23;60.07;99286.25;5074790;28;20025;-75
2021/06/11 02:50:53;;;;;;;9.60;4.40;;;;;;;20.06;59.85;99242.56;5052159;28;20064;-76
2021/06/11 02:53:26;;;;;;;9.15;4.25;;;;;;;20.33;59.82;99302.47;5073814;28;20055;-75
2021/06/11 02:55:57;;;;;;;9.68;4.40;;;;;;;20.24;59.50;99282.50;5074284;28;20492;-75
2021/06/11 02:58:28;;;;;;;5.88;4.75;;;;;;;20.34;59.66;99284.50;5074290;28;20070;-76
2021/06/11 03:00:55;;;;;;;8.93;5.22;;;;;;;20.36;59.71;99298.47;5074447;28;20066;-75
2021/06/11 03:03:40;;;;;;;8.05;4.72;;;;;;;20.33;59.49;99288.25;5074081;28;20024;-76
2021/06/11 03:06:08;;;;;;;5.47;4.63;;;;;;;20.26;59.81;99283.06;5074205;28;20031;-77
2021/06/11 03:08:37;;;;;;;8.70;4.80;;;;;;;20.40;59.43;99318.41;5074029;28;20030;-75
2021/06/11 03:11:09;;;;;;;8.75;4.68;;;;;;;20.28;59.60;99281.75;5073964;28;20028;-76
2021/06/11 03:13:35;;;;;;;5.25;3.95;;;;;;;20.18;59.87;99265.53;5073876;28;20107;-76
2021/06/11 03:16:02;;;;;;;8.75;4.68;;;;;;;20.27;59.76;99276.66;5073867;28;20052;-75
2021/06/11 03:18:41;;;;;;;6.55;4.65;;;;;;;20.02;59.89;99234.19;5074080;28;20021;-75
2021/06/11 03:21:15;;;;;;;10.90;5.20;;;;;;;20.08;59.73;99238.59;5074069;28;20024;-74
2021/06/11 03:23:46;;;;;;;8.32;4.85;;;;;;;20.50;59.96;99299.78;5074035;28;20020;-75
2021/06/11 03:26:14;;;;;;;8.40;4.88;;;;;;;20.36;60.28;99287.75;5073777;28;20111;-75
2021/06/11 03:28:46;;;;;;;8.13;4.65;;;;;;;20.43;60.36;99310.69;5073878;28;20036;-75
2021/06/11 03:31:19;;;;;;;7.40;4.93;;;;;;;20.43;60.39;99309.88;5072324;28;20029;-76
2021/06/11 03:33:48;;;;;;;7.53;4.70;;;;;;;19.92;60.61;99234.06;5072539;28;20107;-74
2021/06/11 03:36:25;;;;;;;7.45;4.40;;;;;;;20.45;60.43;99308.56;5073142;28;20036;-75
2021/06/11 03:38:57;;;;;;;8.63;4.70;;;;;;;20.19;60.24;99264.47;5073289;28;20075;-74
2021/06/11 03:41:23;;;;;;;6.28;4.18;;;;;;;20.45;59.99;99297.03;5073172;28;20044;-74
2021/06/11 03:43:51;;;;;;;8.00;4.60;;;;;;;20.36;60.02;99293.94;5073577;28;20419;-75
2021/06/11 03:46:18;;;;;;;9.77;4.80;;;;;;;19.94;60.09;99215.84;5073534;28;20106;-76
2021/06/11 03:48:49;;;;;;;10.10;4.65;;;;;;;20.26;59.95;99265.09;5076903;28;20032;-74
2021/06/11 03:51:16;;;;;;;6.65;4.38;;;;;;;20.64;59.98;99325.16;5073153;28;20029;-74
2021/06/11 03:53:42;;;;;;;7.65;4.50;;;;;;;20.38;59.79;99278.41;5071862;28;20036;-74
2021/06/11 03:56:11;;;;;;;8.15;4.95;;;;;;;20.68;59.56;99318.25;5073293;28;20173;-73
2021/06/11 03:58:41;;;;;;;7.53;5.03;;;;;;;20.69;59.68;99332.47;5073041;28;20515;-73
2021/06/11 04:01:10;;;;;;;7.90;4.85;;;;;;;20.67;59.75;99323.84;5073100;28;20542;-76
2021/06/11 04:03:42;;;;;;;9.82;5.00;;;;;;;20.24;59.72;99263.75;5073114;28;20039;-76
2021/06/11 04:06:12;;;;;;;9.20;5.18;;;;;;;20.65;59.96;99323.28;5073160;28;20031;-74
2021/06/11 04:08:38;;;;;;;6.07;4.63;;;;;;;20.04;60.00;99234.75;5073046;28;20415;-76
2021/06/11 04:11:06;;;;;;;8.85;5.00;;;;;;;20.61;59.81;99326.47;5072754;28;20028;-74
2021/06/11 04:13:53;;;;;;;10.40;4.68;;;;;;;20.59;59.64;99320.56;5072939;28;20089;-74
2021/06/11 04:16:41;;;;;;;8.32;4.82;;;;;;;20.53;59.97;99320.72;5072909;28;20024;-75
2021/06/11 04:19:10;;;;;;;10.75;5.68;;;;;;;20.26;59.80;99289.25;5072558;28;20025;-75
2021/06/11 04:21:36;;;;;;;9.65;4.82;;;;;;;20.47;60.20;99327.09;5072510;28;20029;-75
2021/06/11 04:24:06;;;;;;;9.20;4.93;;;;;;;20.39;60.36;99325.66;5072801;28;20040;-76
2021/06/11 04:26:35;;;;;;;8.18;5.72;;;;;;;19.80;60.81;99257.44;5072561;28;20032;-74
2021/06/11 04:29:02;;;;;;;9.65;5.82;;;;;;;20.17;61.16;99330.13;5072468;28;20029;-76
2021/06/11 04:31:28;;;;;;;11.13;5.18;;;;;;;20.07;61.26;99320.06;5072327;28;20024;-76
2021/06/11 04:33:54;;;;;;;10.68;5.90;;;;;;;20.02;61.38;99319.13;5072510;28;20035;-76
2021/06/11 04:36:20;;;;;;;10.32;5.47;;;;;;;20.24;61.01;99339.63;5072457;28;20031;-75
2021/06/11 04:39:00;;;;;;;9.23;5.10;;;;;;;20.38;60.92;99339.25;5072343;28;20428;-76
2021/06/11 04:41:28;;;;;;;9.48;4.95;;;;;;;20.36;60.66;99341.38;5072218;28;20048;-75
2021/06/11 04:43:57;;;;;;;10.98;5.40;;;;;;;20.11;60.44;99293.56;5072142;28;20029;-75
2021/06/11 04:46:23;;;;;;;16.08;6.57;;;;;;;20.26;60.71;99312.56;5072018;28;20032;-75
2021/06/11 04:48:48;;;;;;;10.85;6.07;;;;;;;20.44;60.45;99344.50;5071299;28;20028;-76
2021/06/11 04:51:14;;;;;;;9.75;6.22;;;;;;;20.40;60.53;99351.41;5071913;28;20063;-76
2021/06/11 04:53:40;;;;;;;12.43;6.30;;;;;;;19.95;60.56;99265.72;5072019;28;20028;-76
2021/06/11 04:56:08;;;;;;;11.30;6.40;;;;;;;20.50;60.47;99354.22;5070699;28;20394;-76
2021/06/11 04:58:36;;;;;;;12.10;7.13;;;;;;;19.98;60.21;99254.50;5072033;28;20024;-75
2021/06/11 05:01:01;;;;;;;11.27;7.25;;;;;;;20.37;60.06;99308.16;5079776;28;20016;-76
2021/06/11 05:03:26;;;;;;;10.38;7.30;;;;;;;20.30;60.13;99305.66;5090616;28;20084;-75
2021/06/11 05:05:52;;;;;;;9.30;6.88;;;;;;;20.04;60.46;99274.16;5073083;28;20055;-77
2021/06/11 05:08:17;;;;;;;9.20;6.50;;;;;;;19.99;60.48;99266.84;5086886;28;20038;-75
2021/06/11 05:10:43;;;;;;;10.85;5.78;;;;;;;20.48;60.72;99366.25;5091953;28;20032;-75
2021/06/11 05:13:08;;;;;;;9.88;5.55;;;;;;;19.91;60.66;99286.81;5092000;28;20024;-73
2021/06/11 05:15:33;;;;;;;5.75;5.20;;;;;;;20.38;60.72;99344.63;5084072;28;20564;-73
2021/06/11 05:18:06;;;;;;;8.45;4.90;;;;;;;20.59;60.54;99373.38;5082653;28;20459;-74
2021/06/11 05:20:32;;;;;;;8.82;5.90;;;;;;;20.37;60.25;99321.56;5071459;28;20020;-73
2021/06/11 05:22:58;;;;;;;6.38;5.15;;;;;;;20.81;59.92;99368.06;5083467;28;20039;-75
2021/06/11 05:25:24;;;;;;;9.60;5.32;;;;;;;20.61;59.86;99336.41;5092183;28;20031;-76
2021/06/11 05:27:49;;;;;;;8.23;5.53;;;;;;;20.92;59.50;99367.94;5085933;28;20193;-76
2021/06/11 05:30:17;;;;;;;6.75;4.47;;;;;;;21.06;58.98;99359.53;5070864;28;20125;-76
2021/06/11 05:32:43;;;;;;;7.45;5.70;;;;;;;21.20;58.54;99360.75;5074256;28;20043;-76
2021/06/11 05:35:08;;;;;;;8.27;7.20;;;;;;;21.15;58.05;99340.03;5091739;28;20062;-74
2021/06/11 05:37:34;;;;;;;7.60;6.82;;;;;;;21.24;57.91;99348.47;5075627;28;20039;-73
2021/06/11 05:39:59;;;;;;;8.57;6.30;;;;;;;21.32;58.10;99374.06;5091100;28;20512;-74
2021/06/11 05:42:25;;;;;;;7.65;5.82;;;;;;;21.38;58.43;99383.81;5085208;28;20024;-77
2021/06/11 05:44:50;;;;;;;6.60;5.72;;;;;;;21.27;58.20;99355.22;5075667;28;20033;-76
2021/06/11 05:47:15;;;;;;;6.80;5.05;;;;;;;21.11;58.08;99322.81;5086882;28;20040;-76
2021/06/11 05:49:41;;;;;;;7.38;4.75;;;;;;;21.15;58.13;99331.16;5076994;28;20036;-76
2021/06/11 05:52:07;;;;;;;5.72;5.13;;;;;;;21.52;58.13;99379.66;5088611;28;20484;-73
2021/06/11 05:54:32;;;;;;;7.68;5.57;;;;;;;21.53;58.19;99381.28;5089689;28;20100;-76
2021/06/11 05:56:57;;;;;;;6.47;5.32;;;;;;;21.20;58.28;99336.59;5084390;28;20480;-76
2021/06/11 05:59:23;;;;;;;7.32;4.30;;;;;;;21.18;58.02;99317.25;5076801;28;20091;-76
2021/06/11 06:01:48;;;;;;;9.20;5.68;;;;;;;21.03;57.92;99299.09;5086342;28;20020;-75
2021/06/11 06:04:14;;;;;;;8.80;5.55;;;;;;;21.10;58.19;99321.19;5095549;28;20028;-75
2021/06/11 06:06:39;;;;;;;5.53;5.03;;;;;;;20.93;58.14;99291.75;5095471;28;20024;-76
2021/06/11 06:09:05;;;;;;;7.55;5.15;;;;;;;21.56;58.37;99383.50;5093804;28;20054;-76
2021/06/11 06:11:30;;;;;;;5.63;4.78;;;;;;;21.17;58.11;99326.34;5077827;28;20124;-75
2021/06/11 06:13:55;;;;;;;5.90;5.25;;;;;;;21.60;58.12;99379.22;5085668;28;20042;-75
2021/06/11 06:16:21;;;;;;;6.60;5.93;;;;;;;21.50;57.86;99352.22;5074745;28;20511;-76
2021/06/11 06:18:47;;;;;;;8.90;4.93;;;;;;;21.64;57.47;99347.28;5084285;28;20024;-74
2021/06/11 06:21:13;;;;;;;7.15;4.60;;;;;;;21.95;57.38;99383.31;5092929;28;20024;-74
2021/06/11 06:23:39;;;;;;;7.03;4.70;;;;;;;22.06;57.02;99387.72;5074809;28;20032;-74
2021/06/11 06:26:04;;;;;;;5.85;5.20;;;;;;;22.23;57.00;99409.09;5074811;28;20032;-75
2021/06/11 06:28:30;;;;;;;8.70;7.40;;;;;;;22.25;57.10;99413.16;5083477;28;20411;-75
2021/06/11 06:30:55;;;;;;;7.95;5.32;;;;;;;22.09;56.72;99377.28;5098488;28;20031;-75
2021/06/11 06:33:20;;;;;;;6.20;5.18;;;;;;;22.12;56.84;99354.44;5094287;28;20038;-75
2021/06/11 06:35:46;;;;;;;7.25;4.72;;;;;;;22.45;56.72;99399.88;5084686;28;20025;-75
2021/06/11 06:38:13;;;;;;;6.07;4.75;;;;;;;22.25;56.67;99358.56;5074320;28;20028;-76
2021/06/11 06:40:39;;;;;;;8.05;5.25;;;;;;;22.39;56.80;99371.31;5080013;28;20513;-75
2021/06/11 06:43:04;;;;;;;9.27;5.43;;;;;;;21.14;56.57;99184.56;5075742;28;20027;-75
2021/06/11 06:45:30;;;;;;;8.10;4.80;;;;;;;22.26;56.60;99349.41;5074100;28;20028;-75
2021/06/11 06:47:55;;;;;;;7.55;4.93;;;;;;;22.25;56.52;99343.22;5093948;28;20072;-74
2021/06/11 06:50:21;;;;;;;4.97;4.25;;;;;;;22.48;56.39;99379.72;5088983;28;20040;-75
2021/06/11 06:52:47;;;;;;;8.45;5.32;;;;;;;22.57;56.44;99394.31;5079665;28;21815;-75
2021/06/11 06:55:13;;;;;;;7.80;5.20;;;;;;;22.70;56.13;99401.09;5083697;28;20029;-75
2021/06/11 06:57:39;;;;;;;6.22;4.40;;;;;;;22.68;55.89;99397.88;5090847;28;20085;-74
2021/06/11 07:00:06;;;;;;;5.90;4.60;;;;;;;22.70;55.79;99404.59;5086115;28;20718;-75
2021/06/11 07:02:32;;;;;;;8.85;4.50;;;;;;;22.73;55.58;99387.94;5082209;28;20561;-76
2021/06/11 07:04:57;;;;;;;5.10;4.05;;;;;;;22.51;54.91;99350.41;5074148;28;20028;-75
2021/06/11 07:07:22;;;;;;;5.25;4.57;;;;;;;22.59;54.65;99354.50;5078573;28;20033;-76
2021/06/11 07:09:48;;;;;;;6.10;4.45;;;;;;;22.20;54.81;99302.84;5081119;28;20085;-74
2021/06/11 07:12:13;;;;;;;4.20;3.80;;;;;;;22.19;54.23;99268.97;5072667;28;20166;-77
2021/06/11 07:14:40;;;;;;;6.45;4.60;;;;;;;22.80;54.24;99348.16;5088870;28;20035;-75
2021/06/11 07:17:06;;;;;;;6.70;4.60;;;;;;;23.10;54.21;99387.09;5086632;28;20011;-78
2021/06/11 07:19:32;;;;;;;5.80;4.85;;;;;;;23.15;54.16;99387.09;5076806;28;20035;-75
2021/06/11 07:21:58;;;;;;;7.32;5.85;;;;;;;22.87;53.94;99322.88;5076355;28;20032;-77
2021/06/11 07:24:24;;;;;;;5.45;4.90;;;;;;;23.18;53.85;99358.81;5085437;28;20029;-76
2021/06/11 07:26:49;;;;;;;5.65;3.20;;;;;;;23.29;52.82;99373.94;5073197;28;20036;-76
2021/06/11 07:29:14;;;;;;;3.90;3.50;;;;;;;23.00;52.11;99319.69;5074231;28;20028;-76
2021/06/11 07:31:40;;;;;;;6.78;4.03;;;;;;;23.34;51.86;99365.88;5077946;28;20028;-75
2021/06/11 07:34:05;;;;;;;4.15;3.45;;;;;;;23.47;51.78;99384.22;5081832;28;20408;-76
2021/06/11 07:36:31;;;;;;;4.03;3.63;;;;;;;23.50;51.31;99367.53;5076160;28;20029;-75
2021/06/11 07:38:56;;;;;;;3.95;3.65;;;;;;;23.61;50.86;99374.59;5076165;28;20028;-75
2021/06/11 07:41:22;;;;;;;7.05;4.53;;;;;;;23.44;50.99;99328.19;5098130;28;20507;-75
2021/06/11 07:43:50;;;;;;;5.70;4.57;;;;;;;23.77;51.24;99357.34;5091077;28;20074;-75
2021/06/11 07:46:17;;;;;;;6.63;4.00;;;;;;;24.01;50.90;99376.53;5087804;28;20394;-74
2021/06/11 07:48:42;;;;;;;4.78;3.85;;;;;;;24.05;50.40;99383.00;5073769;28;20111;-75
2021/06/11 07:51:08;;;;;;;5.28;4.32;;;;;;;24.04;50.33;99362.50;5070820;28;20416;-74
2021/06/11 07:53:33;;;;;;;4.55;3.65;;;;;;;23.74;49.78;99308.56;5081805;28;20028;-76
2021/06/11 07:55:59;;;;;;;7.40;4.15;;;;;;;24.26;49.71;99397.28;5077977;28;20101;-76
2021/06/11 07:58:24;;;;;;;6.68;4.53;;;;;;;24.22;49.07;99352.22;5079026;28;20036;-75
2021/06/11 08:00:49;;;;;;;7.68;6.72;;;;;;;24.06;48.83;99329.84;5081771;28;20020;-79
2021/06/11 08:03:15;;;;;;;5.10;4.30;;;;;;;24.14;48.22;99333.91;5078060;28;20059;-74
2021/06/11 08:05:40;;;;;;;6.75;6.07;;;;;;;24.38;47.97;99367.34;5073085;28;20021;-76
2021/06/11 08:08:07;;;;;;;7.10;6.25;;;;;;;24.47;47.75;99368.41;5087175;28;20027;-76
2021/06/11 08:10:32;;;;;;;6.15;4.85;;;;;;;24.52;48.11;99362.19;5086196;28;20132;-74
2021/06/11 08:12:58;;;;;;;8.02;4.82;;;;;;;24.52;48.49;99352.19;5075807;28;20584;-75
2021/06/11 08:15:23;;;;;;;8.52;7.63;;;;;;;24.75;48.17;99374.31;5077980;28;20028;-75
2021/06/11 08:17:49;;;;;;;11.15;9.80;;;;;;;24.86;47.96;99355.09;5071893;28;20040;-75
2021/06/11 08:20:15;;;;;;;15.02;13.48;;;;;;;24.89;47.55;99348.31;5072150;28;20032;-74
2021/06/11 08:22:40;;;;;;;8.35;7.45;;;;;;;25.07;47.13;99344.22;5071945;28;20032;-74
2021/06/11 08:25:08;;;;;;;9.43;8.40;;;;;;;25.24;46.90;99355.47;5074461;28;20032;-75
2021/06/11 08:27:33;;;;;;;8.13;6.18;;;;;;;25.26;46.37;99361.41;5075268;28;20036;-75
2021/06/11 08:29:59;;;;;;;6.05;4.55;;;;;;;25.29;46.37;99358.19;5071473;28;20390;-74
2021/06/11 08:32:24;;;;;;;7.07;4.60;;;;;;;25.09;45.79;99315.03;5078195;28;20028;-74
2021/06/11 08:34:50;;;;;;;5.65;4.53;;;;;;;25.04;46.05;99305.06;5073621;28;20031;-76
2021/06/11 08:37:15;;;;;;;4.70;4.30;;;;;;;25.40;46.15;99354.34;5072019;28;20033;-74
2021/06/11 08:39:41;;;;;;;6.30;5.20;;;;;;;25.42;46.87;99335.13;5075106;28;20120;-73
2021/06/11 08:42:08;;;;;;;9.93;5.78;;;;;;;25.59;47.35;99346.38;5083750;28;20028;-74
2021/06/11 08:44:33;;;;;;;9.07;5.70;;;;;;;25.18;46.99;99257.44;5076398;28;20069;-76
2021/06/11 08:46:59;;;;;;;6.97;5.18;;;;;;;25.50;46.65;99280.47;5086395;28;20221;-75
2021/06/11 08:49:24;;;;;;;5.00;4.07;;;;;;;25.73;45.97;99297.88;5080564;28;20038;-76
2021/06/11 08:51:55;;;;;;;7.32;3.85;;;;;;;26.11;45.03;99342.22;5084234;28;20715;-74
2021/06/11 08:54:21;;;;;;;4.32;3.47;;;;;;;26.19;44.97;99349.72;5072898;28;20025;-74
2021/06/11 08:56:46;;;;;;;7.00;3.63;;;;;;;26.15;44.99;99348.66;5082699;28;20024;-73
2021/06/11 08:59:13;;;;;;;5.32;3.60;;;;;;;26.11;45.06;99350.31;5078151;28;20077;-75
2021/06/11 09:01:38;;;;;;;6.30;3.75;;;;;;;26.07;44.90;99327.63;5071053;28;20627;-76
2021/06/11 09:04:04;;;;;;;5.53;3.50;;;;;;;26.12;44.42;99350.03;5080262;28;20111;-76
2021/06/11 09:06:29;;;;;;;9.07;4.38;;;;;;;26.19;44.16;99317.25;5083203;28;20115;-76
2021/06/11 09:09:03;;;;;;;5.88;4.15;;;;;;;26.45;43.86;99329.44;5088204;28;20049;-75
2021/06/11 09:11:30;;;;;;;6.90;4.20;;;;;;;26.63;43.80;99324.38;5071364;28;20037;-76
2021/06/11 09:14:12;;;;;;;5.47;4.55;;;;;;;26.28;43.88;99240.53;5078171;28;20053;-76
2021/06/11 09:16:48;;;;;;;4.80;4.30;;;;;;;26.71;43.36;99259.53;5079916;28;20511;-76
2021/06/11 09:19:23;;;;;;;4.88;4.22;;;;;;;27.34;42.40;99321.59;5097800;28;20054;-76
2021/06/11 09:21:55;;;;;;;6.13;5.05;;;;;;;27.09;41.85;99259.63;5088945;28;20042;-75
2021/06/11 09:24:24;;;;;;;5.65;4.30;;;;;;;27.68;41.26;99309.72;5084177;28;20028;-75
2021/06/11 09:27:05;;;;;;;5.22;4.47;;;;;;;27.81;41.18;99309.78;5088791;28;20416;-75
2021/06/11 09:29:38;;;;;;;5.97;5.38;;;;;;;27.87;40.08;99307.78;5076188;28;20039;-77
2021/06/11 09:32:26;;;;;;;4.97;4.47;;;;;;;27.88;39.67;99287.69;5099109;28;20389;-77
2021/06/11 09:34:57;;;;;;;5.90;5.03;;;;;;;28.02;39.32;99280.38;5083865;28;20023;-75
2021/06/11 09:37:30;;;;;;;6.22;5.07;;;;;;;28.18;38.30;99280.91;5098402;28;20075;-77
2021/06/11 09:39:58;;;;;;;73.90;67.10;;;;;;;28.37;38.30;99289.00;5071094;28;20445;-75
2021/06/11 09:42:33;;;;;;;8.95;8.05;;;;;;;28.35;38.55;99245.06;5082719;28;20023;-76
2021/06/11 09:44:59;;;;;;;8.90;5.18;;;;;;;28.73;38.26;99298.03;5077189;28;20027;-74
2021/06/11 09:47:48;;;;;;;5.97;5.40;;;;;;;28.44;38.44;99229.66;5086216;28;20041;-75
2021/06/11 09:50:22;;;;;;;9.38;5.57;;;;;;;28.80;38.12;99284.84;5074215;28;20519;-75
2021/06/11 09:53:01;;;;;;;5.18;4.15;;;;;;;28.91;36.45;99279.22;5079764;28;20032;-75
2021/06/11 09:55:53;;;;;;;5.00;3.75;;;;;;;29.01;37.54;99282.56;5071453;28;20048;-75
2021/06/11 09:58:27;;;;;;;6.53;4.35;;;;;;;29.27;37.35;99271.91;5053036;28;20028;-74
2021/06/11 10:01:00;;;;;;;6.05;4.40;;;;;;;29.41;37.31;99280.00;5059915;28;20021;-73
2021/06/11 10:03:36;;;;;;;5.45;4.70;;;;;;;29.42;36.91;99238.91;5053403;28;20031;-74
2021/06/11 10:06:04;;;;;;;5.40;4.72;;;;;;;29.90;36.78;99278.31;5070846;28;20025;-76
2021/06/11 10:08:30;;;;;;;5.07;4.22;;;;;;;30.09;35.71;99267.22;5067922;28;20024;-74
2021/06/11 10:10:58;;;;;;;5.05;3.92;;;;;;;30.35;35.54;99282.53;5051715;28;20035;-75
2021/06/11 10:13:25;;;;;;;5.78;4.03;;;;;;;30.40;35.03;99270.69;5050953;28;20060;-75
2021/06/11 10:15:53;;;;;;;7.25;4.25;;;;;;;30.45;34.59;99275.19;5062106;28;20028;-73
2021/06/11 10:18:21;;;;;;;5.32;4.10;;;;;;;30.18;34.82;99230.72;5057341;28;20028;-75
2021/06/11 10:20:47;;;;;;;4.38;3.95;;;;;;;30.26;34.81;99253.66;5052714;28;20048;-76
2021/06/11 10:23:16;;;;;;;5.82;3.78;;;;;;;30.16;34.30;99281.97;5055131;28;20024;-75
2021/06/11 10:25:44;;;;;;;5.65;3.78;;;;;;;29.76;35.08;99291.19;5057790;28;20494;-75
2021/06/11 10:28:18;;;;;;;4.93;3.03;;;;;;;29.30;34.90;99260.41;5055308;28;20402;-75
2021/06/11 10:30:44;;;;;;;3.83;3.47;;;;;;;28.75;35.27;99230.63;5057013;28;20040;-75
2021/06/11 10:33:10;;;;;;;5.43;3.50;;;;;;;28.92;36.09;99283.56;5051303;28;20040;-75
2021/06/11 10:35:42;;;;;;;3.85;3.55;;;;;;;28.65;36.26;99285.19;5074842;28;20024;-74
2021/06/11 10:38:29;;;;;;;6.82;3.67;;;;;;;28.50;36.41;99281.97;5057078;28;20508;-74
2021/06/11 10:40:57;;;;;;;3.28;2.90;;;;;;;28.18;36.55;99261.88;5060985;28;20111;-76
2021/06/11 10:43:28;;;;;;;3.72;3.42;;;;;;;28.46;36.56;99277.13;5062100;28;20036;-76
2021/06/11 10:45:56;;;;;;;6.32;3.80;;;;;;;28.14;36.63;99245.41;5053904;28;20027;-75
2021/06/11 10:48:22;;;;;;;4.57;3.53;;;;;;;28.28;36.91;99241.94;5060988;28;20052;-77
2021/06/11 10:50:48;;;;;;;4.57;3.72;;;;;;;28.64;36.65;99282.75;5060908;28;20033;-76
2021/06/11 10:53:26;;;;;;;6.53;4.07;;;;;;;28.62;36.41;99271.41;5068890;28;20028;-76
2021/06/11 10:56:06;;;;;;;4.90;3.58;;;;;;;28.97;36.34;99262.50;5061221;28;20533;-74
2021/06/11 10:58:33;;;;;;;5.97;3.72;;;;;;;29.16;35.68;99259.66;5058556;28;20029;-76
2021/06/11 11:00:58;;;;;;;3.95;3.60;;;;;;;29.27;35.28;99203.91;5068120;28;20624;-76
2021/06/11 11:03:29;;;;;;;3.45;3.15;;;;;;;30.00;34.11;99262.50;5054871;28;20163;-75
2021/06/11 11:05:55;;;;;;;5.15;2.97;;;;;;;30.28;33.84;99251.44;5084467;28;20024;-73
2021/06/11 11:08:21;;;;;;;5.50;4.32;;;;;;;30.02;33.02;99183.25;5062029;28;20037;-73
2021/06/11 11:10:54;;;;;;;2.97;2.78;;;;;;;30.80;32.64;99252.41;5067382;28;20373;-76
2021/06/11 11:13:25;;;;;;;8.10;3.33;;;;;;;31.11;31.86;99257.72;5059478;28;20080;-74
2021/06/11 11:15:57;;;;;;;8.75;3.60;;;;;;;31.48;31.84;99248.13;5066632;28;20421;-76
2021/06/11 11:18:34;;;;;;;4.47;3.15;;;;;;;31.82;31.08;99244.56;5064547;28;20036;-75
2021/06/11 11:21:20;;;;;;;4.80;3.13;;;;;;;32.01;31.31;99235.19;5053630;28;20107;-75
2021/06/11 11:23:51;;;;;;;6.15;3.20;;;;;;;31.67;31.11;99203.28;5073005;28;20489;-76
2021/06/11 11:26:17;;;;;;;4.35;2.65;;;;;;;31.52;31.50;99196.44;5055975;28;20436;-76
2021/06/11 11:28:42;;;;;;;2.60;2.40;;;;;;;31.60;31.13;99199.16;5070379;28;20054;-76
2021/06/11 11:31:07;;;;;;;2.80;2.60;;;;;;;31.77;31.02;99206.50;5068262;28;20048;-75
2021/06/11 11:33:33;;;;;;;4.43;3.15;;;;;;;31.99;30.85;99226.53;5053297;28;20108;-75
2021/06/11 11:35:59;;;;;;;3.17;2.88;;;;;;;32.07;30.16;99182.00;5052144;28;20021;-74